Argyle, Florida
Current Conditions -  °F | °C
As of 7:55 AM on Sunday 25 Jan 2015 (Local Time) from K54J Reporting Station
Clear Clear  
Wind Chill: 38°   Ceiling: Unl
Heat Index: 41°   Visibility: 10mi
Dew Point: 36°   Wind: 5mph
Humidity: 82%   Direction: 220°SW
Pressure: 30.05"   Gusts: NA
Location:  30.72°N, 86.04°W
Report Text: K54J 251355Z AUTO 22004KT 10SM CLR 05/02 A3005 RMK AO2 T00510023
Loading
Personal Weather Stations






























Interactive Weather Map New forecast layout! Learn more

10-Day Weather Forecast

Advertisements
Track Severe Weather on mobile